sensor_id;sensor_type;location;lat;lon;timestamp;pressure;altitude;pressure_sealevel;temperature;humidity
48872;BME280;36154;51.674;7.824;2022-08-19T00:00:12;100530.38;;;26.92;47.65
48872;BME280;36154;51.674;7.824;2022-08-19T00:02:40;100526.91;;;26.91;47.50
48872;BME280;36154;51.674;7.824;2022-08-19T00:05:06;100532.19;;;26.90;47.43
48872;BME280;36154;51.674;7.824;2022-08-19T00:07:32;100533.22;;;26.87;47.84
48872;BME280;36154;51.674;7.824;2022-08-19T00:09:57;100525.63;;;26.82;47.84
48872;BME280;36154;51.674;7.824;2022-08-19T00:12:23;100544.22;;;26.76;47.97
48872;BME280;36154;51.674;7.824;2022-08-19T00:14:48;100550.53;;;26.72;47.78
48872;BME280;36154;51.674;7.824;2022-08-19T00:17:13;100555.91;;;26.69;48.26
48872;BME280;36154;51.674;7.824;2022-08-19T00:19:39;100557.75;;;26.67;47.94
48872;BME280;36154;51.674;7.824;2022-08-19T00:22:06;100545.81;;;26.63;48.40
48872;BME280;36154;51.674;7.824;2022-08-19T00:24:33;100546.66;;;26.63;48.41
48872;BME280;36154;51.674;7.824;2022-08-19T00:27:00;100542.25;;;26.64;48.24
48872;BME280;36154;51.674;7.824;2022-08-19T00:29:26;100547.47;;;26.64;48.15
48872;BME280;36154;51.674;7.824;2022-08-19T00:31:52;100557.00;;;26.65;48.09
48872;BME280;36154;51.674;7.824;2022-08-19T00:34:20;100542.25;;;26.64;48.51
48872;BME280;36154;51.674;7.824;2022-08-19T00:36:46;100537.16;;;26.61;48.22
48872;BME280;36154;51.674;7.824;2022-08-19T00:39:13;100538.25;;;26.57;48.71
48872;BME280;36154;51.674;7.824;2022-08-19T00:41:39;100543.72;;;26.52;48.66
48872;BME280;36154;51.674;7.824;2022-08-19T00:44:17;100537.06;;;26.46;48.81
48872;BME280;36154;51.674;7.824;2022-08-19T00:46:46;100534.53;;;26.45;48.95
48872;BME280;36154;51.674;7.824;2022-08-19T00:49:17;100521.78;;;26.39;49.07
48872;BME280;36154;51.674;7.824;2022-08-19T00:51:47;100528.78;;;26.38;48.85
48872;BME280;36154;51.674;7.824;2022-08-19T00:54:13;100530.63;;;26.36;48.85
48872;BME280;36154;51.674;7.824;2022-08-19T00:56:39;100535.91;;;26.35;48.74
48872;BME280;36154;51.674;7.824;2022-08-19T00:59:05;100529.06;;;26.32;49.08
48872;BME280;36154;51.674;7.824;2022-08-19T01:01:42;100528.31;;;26.30;49.16
48872;BME280;36154;51.674;7.824;2022-08-19T01:04:08;100530.16;;;26.28;49.20
48872;BME280;36154;51.674;7.824;2022-08-19T01:06:35;100538.06;;;26.26;49.05
48872;BME280;36154;51.674;7.824;2022-08-19T01:09:02;100538.13;;;26.25;49.27
48872;BME280;36154;51.674;7.824;2022-08-19T01:11:30;100527.09;;;26.20;49.03
48872;BME280;36154;51.674;7.824;2022-08-19T01:13:57;100536.78;;;26.18;49.27
48872;BME280;36154;51.674;7.824;2022-08-19T01:16:25;100530.75;;;26.16;49.34
48872;BME280;36154;51.674;7.824;2022-08-19T01:18:52;100536.84;;;26.16;49.22
48872;BME280;36154;51.674;7.824;2022-08-19T01:21:32;100537.00;;;26.13;49.33
48872;BME280;36154;51.674;7.824;2022-08-19T01:23:59;100538.72;;;26.13;49.63
48872;BME280;36154;51.674;7.824;2022-08-19T01:26:26;100532.75;;;26.10;49.61
48872;BME280;36154;51.674;7.824;2022-08-19T01:28:55;100534.59;;;26.08;49.40
48872;BME280;36154;51.674;7.824;2022-08-19T01:31:25;100527.69;;;26.07;49.56
48872;BME280;36154;51.674;7.824;2022-08-19T01:33:51;100530.31;;;26.07;49.25
48872;BME280;36154;51.674;7.824;2022-08-19T01:36:24;100531.09;;;26.09;49.44
48872;BME280;36154;51.674;7.824;2022-08-19T01:38:51;100525.00;;;26.09;49.37
48872;BME280;36154;51.674;7.824;2022-08-19T01:41:17;100522.41;;;26.09;49.23
48872;BME280;36154;51.674;7.824;2022-08-19T01:43:43;100524.19;;;26.08;49.41
48872;BME280;36154;51.674;7.824;2022-08-19T01:46:09;100525.09;;;26.07;49.51
48872;BME280;36154;51.674;7.824;2022-08-19T01:48:38;100514.72;;;26.06;49.46
48872;BME280;36154;51.674;7.824;2022-08-19T01:51:04;100511.28;;;26.05;49.75
48872;BME280;36154;51.674;7.824;2022-08-19T01:53:30;100508.69;;;26.05;49.89
48872;BME280;36154;51.674;7.824;2022-08-19T01:55:55;100502.63;;;26.05;49.77
48872;BME280;36154;51.674;7.824;2022-08-19T01:58:23;100508.69;;;26.05;49.67
48872;BME280;36154;51.674;7.824;2022-08-19T02:00:50;100501.81;;;26.04;49.57
48872;BME280;36154;51.674;7.824;2022-08-19T02:03:15;100504.41;;;26.04;49.64
48872;BME280;36154;51.674;7.824;2022-08-19T02:05:42;100503.63;;;26.02;49.73
48872;BME280;36154;51.674;7.824;2022-08-19T02:08:08;100506.28;;;26.01;49.68
48872;BME280;36154;51.674;7.824;2022-08-19T02:10:38;100499.34;;;26.01;50.00
48872;BME280;36154;51.674;7.824;2022-08-19T02:13:04;100502.78;;;26.02;50.12
48872;BME280;36154;51.674;7.824;2022-08-19T02:15:29;100491.59;;;26.00;50.07
48872;BME280;36154;51.674;7.824;2022-08-19T02:17:55;100495.94;;;25.99;49.92
48872;BME280;36154;51.674;7.824;2022-08-19T02:20:20;100498.56;;;25.99;50.00
48872;BME280;36154;51.674;7.824;2022-08-19T02:22:45;100496.88;;;25.98;50.14
48872;BME280;36154;51.674;7.824;2022-08-19T02:25:12;100500.41;;;25.97;49.91
48872;BME280;36154;51.674;7.824;2022-08-19T02:27:39;100488.31;;;25.96;50.17
48872;BME280;36154;51.674;7.824;2022-08-19T02:30:07;100503.09;;;25.96;50.27
48872;BME280;36154;51.674;7.824;2022-08-19T02:32:32;100502.38;;;25.92;50.33
48872;BME280;36154;51.674;7.824;2022-08-19T02:34:58;100511.13;;;25.91;50.29
48872;BME280;36154;51.674;7.824;2022-08-19T02:37:23;100503.38;;;25.89;50.26
48872;BME280;36154;51.674;7.824;2022-08-19T02:40:08;100502.69;;;25.86;50.19
48872;BME280;36154;51.674;7.824;2022-08-19T02:42:33;100498.38;;;25.85;50.29
48872;BME280;36154;51.674;7.824;2022-08-19T02:44:59;100488.94;;;25.82;50.02
48872;BME280;36154;51.674;7.824;2022-08-19T02:47:25;100488.19;;;25.80;50.45
48872;BME280;36154;51.674;7.824;2022-08-19T02:49:50;100484.75;;;25.80;50.50
48872;BME280;36154;51.674;7.824;2022-08-19T02:52:16;100484.06;;;25.76;50.30
48872;BME280;36154;51.674;7.824;2022-08-19T02:54:41;100484.88;;;25.77;50.37
48872;BME280;36154;51.674;7.824;2022-08-19T02:57:07;100486.72;;;25.74;50.17
48872;BME280;36154;51.674;7.824;2022-08-19T02:59:33;100494.63;;;25.73;50.60
48872;BME280;36154;51.674;7.824;2022-08-19T03:01:59;100497.28;;;25.71;50.49
48872;BME280;36154;51.674;7.824;2022-08-19T03:04:25;100506.81;;;25.72;50.46
48872;BME280;36154;51.674;7.824;2022-08-19T03:06:53;100502.44;;;25.73;50.30
48872;BME280;36154;51.674;7.824;2022-08-19T03:09:19;100501.59;;;25.72;50.18
48872;BME280;36154;51.674;7.824;2022-08-19T03:11:45;100500.72;;;25.72;49.83
48872;BME280;36154;51.674;7.824;2022-08-19T03:14:11;100499.00;;;25.72;49.83
48872;BME280;36154;51.674;7.824;2022-08-19T03:16:46;100493.06;;;25.69;49.85
48872;BME280;36154;51.674;7.824;2022-08-19T03:19:12;100492.31;;;25.67;49.97
48872;BME280;36154;51.674;7.824;2022-08-19T03:21:38;100490.63;;;25.66;50.15
48872;BME280;36154;51.674;7.824;2022-08-19T03:24:06;100498.53;;;25.64;50.26
48872;BME280;36154;51.674;7.824;2022-08-19T03:26:33;100501.19;;;25.63;49.84
48872;BME280;36154;51.674;7.824;2022-08-19T03:29:02;100497.78;;;25.61;50.13
48872;BME280;36154;51.674;7.824;2022-08-19T03:31:28;100500.50;;;25.59;50.48
48872;BME280;36154;51.674;7.824;2022-08-19T03:33:53;100504.00;;;25.58;50.58
48872;BME280;36154;51.674;7.824;2022-08-19T03:36:21;100501.41;;;25.58;50.64
48872;BME280;36154;51.674;7.824;2022-08-19T03:38:52;100505.78;;;25.58;50.45
48872;BME280;36154;51.674;7.824;2022-08-19T03:41:22;100505.00;;;25.55;50.84
48872;BME280;36154;51.674;7.824;2022-08-19T03:43:48;100508.53;;;25.54;50.77
48872;BME280;36154;51.674;7.824;2022-08-19T03:46:19;100511.22;;;25.53;51.15
48872;BME280;36154;51.674;7.824;2022-08-19T03:48:50;100510.38;;;25.52;51.01
48872;BME280;36154;51.674;7.824;2022-08-19T03:53:51;100509.66;;;25.49;51.35
48872;BME280;36154;51.674;7.824;2022-08-19T03:56:16;100514.97;;;25.47;51.25
48872;BME280;36154;51.674;7.824;2022-08-19T03:58:43;100509.81;;;25.46;51.59
48872;BME280;36154;51.674;7.824;2022-08-19T04:01:11;100513.34;;;25.45;51.16
48872;BME280;36154;51.674;7.824;2022-08-19T04:03:38;100522.06;;;25.44;51.20
48872;BME280;36154;51.674;7.824;2022-08-19T04:06:15;100523.88;;;25.42;51.09
48872;BME280;36154;51.674;7.824;2022-08-19T04:08:42;100525.66;;;25.41;51.61
48872;BME280;36154;51.674;7.824;2022-08-19T04:11:09;100525.72;;;25.40;51.38
48872;BME280;36154;51.674;7.824;2022-08-19T04:13:35;100525.88;;;25.36;51.11
48872;BME280;36154;51.674;7.824;2022-08-19T04:16:00;100525.16;;;25.33;51.17
48872;BME280;36154;51.674;7.824;2022-08-19T04:18:25;100530.44;;;25.31;51.40
48872;BME280;36154;51.674;7.824;2022-08-19T04:20:51;100520.94;;;25.30;51.13
48872;BME280;36154;51.674;7.824;2022-08-19T04:23:16;100534.88;;;25.29;51.32
48872;BME280;36154;51.674;7.824;2022-08-19T04:25:43;100521.09;;;25.27;51.35
48872;BME280;36154;51.674;7.824;2022-08-19T04:28:10;100519.41;;;25.26;51.23
48872;BME280;36154;51.674;7.824;2022-08-19T04:30:48;100524.59;;;25.26;51.08
48872;BME280;36154;51.674;7.824;2022-08-19T04:33:15;100524.72;;;25.23;51.27
48872;BME280;36154;51.674;7.824;2022-08-19T04:35:44;100526.56;;;25.21;51.20
48872;BME280;36154;51.674;7.824;2022-08-19T04:38:10;100518.75;;;25.21;50.92
48872;BME280;36154;51.674;7.824;2022-08-19T04:40:44;100524.84;;;25.20;51.16
48872;BME280;36154;51.674;7.824;2022-08-19T04:43:28;100526.56;;;25.21;50.97
48872;BME280;36154;51.674;7.824;2022-08-19T04:45:54;100531.75;;;25.21;50.70
48872;BME280;36154;51.674;7.824;2022-08-19T04:48:20;100544.72;;;25.23;50.49
48872;BME280;36154;51.674;7.824;2022-08-19T04:50:51;100545.53;;;25.23;50.52
48872;BME280;36154;51.674;7.824;2022-08-19T04:53:21;100534.38;;;25.21;50.54
48872;BME280;36154;51.674;7.824;2022-08-19T04:55:47;100545.53;;;25.23;50.34
48872;BME280;36154;51.674;7.824;2022-08-19T04:58:12;100547.25;;;25.24;50.76
48872;BME280;36154;51.674;7.824;2022-08-19T05:00:39;100547.25;;;25.24;50.53
48872;BME280;36154;51.674;7.824;2022-08-19T05:03:04;100549.91;;;25.23;50.78
48872;BME280;36154;51.674;7.824;2022-08-19T05:05:30;100558.69;;;25.20;50.52
48872;BME280;36154;51.674;7.824;2022-08-19T05:07:56;100561.44;;;25.17;50.81
48872;BME280;36154;51.674;7.824;2022-08-19T05:10:22;100548.50;;;25.15;50.66
48872;BME280;36154;51.674;7.824;2022-08-19T05:12:47;100548.59;;;25.14;50.68
48872;BME280;36154;51.674;7.824;2022-08-19T05:15:13;100538.31;;;25.11;51.27
48872;BME280;36154;51.674;7.824;2022-08-19T05:17:38;100546.25;;;25.08;51.23
48872;BME280;36154;51.674;7.824;2022-08-19T05:20:23;100545.63;;;25.03;51.26
48872;BME280;36154;51.674;7.824;2022-08-19T05:23:12;100544.91;;;24.99;51.41
48872;BME280;36154;51.674;7.824;2022-08-19T05:25:40;100552.00;;;24.95;51.67
48872;BME280;36154;51.674;7.824;2022-08-19T05:28:05;100546.94;;;24.92;51.68
48872;BME280;36154;51.674;7.824;2022-08-19T05:30:31;100551.34;;;24.90;51.52
48872;BME280;36154;51.674;7.824;2022-08-19T05:32:57;100554.94;;;24.88;52.12
48872;BME280;36154;51.674;7.824;2022-08-19T05:35:22;100559.31;;;24.87;52.12
48872;BME280;36154;51.674;7.824;2022-08-19T05:37:49;100542.97;;;24.84;51.78
48872;BME280;36154;51.674;7.824;2022-08-19T05:40:14;100552.41;;;24.86;51.82
48872;BME280;36154;51.674;7.824;2022-08-19T05:42:39;100557.63;;;24.86;52.17
48872;BME280;36154;51.674;7.824;2022-08-19T05:45:05;100543.69;;;24.87;52.16
48872;BME280;36154;51.674;7.824;2022-08-19T05:47:31;100553.19;;;24.88;52.16
48872;BME280;36154;51.674;7.824;2022-08-19T05:49:57;100547.06;;;24.89;51.95
48872;BME280;36154;51.674;7.824;2022-08-19T05:52:22;100548.91;;;24.87;51.86
48872;BME280;36154;51.674;7.824;2022-08-19T05:54:47;100555.78;;;24.88;52.15
48872;BME280;36154;51.674;7.824;2022-08-19T05:57:13;100555.78;;;24.88;51.94
48872;BME280;36154;51.674;7.824;2022-08-19T05:59:38;100554.88;;;24.89;51.81
48872;BME280;36154;51.674;7.824;2022-08-19T06:02:05;100552.28;;;24.89;52.09
48872;BME280;36154;51.674;7.824;2022-08-19T06:04:31;100548.84;;;24.89;52.18
48872;BME280;36154;51.674;7.824;2022-08-19T06:06:57;100546.13;;;24.90;51.84
48872;BME280;36154;51.674;7.824;2022-08-19T06:09:23;100547.06;;;24.89;51.88
48872;BME280;36154;51.674;7.824;2022-08-19T06:11:51;100538.34;;;24.90;51.93
48872;BME280;36154;51.674;7.824;2022-08-19T06:14:22;100542.56;;;24.93;52.12
48872;BME280;36154;51.674;7.824;2022-08-19T06:16:49;100548.63;;;24.93;51.99
48872;BME280;36154;51.674;7.824;2022-08-19T06:19:19;100546.81;;;24.95;51.94
48872;BME280;36154;51.674;7.824;2022-08-19T06:21:46;100537.22;;;24.96;51.82
48872;BME280;36154;51.674;7.824;2022-08-19T06:24:15;100532.03;;;24.96;51.73
48872;BME280;36154;51.674;7.824;2022-08-19T06:26:44;100537.22;;;24.96;51.84
48872;BME280;36154;51.674;7.824;2022-08-19T06:29:12;100541.59;;;24.95;51.91
48872;BME280;36154;51.674;7.824;2022-08-19T06:31:42;100536.53;;;24.92;51.87
48872;BME280;36154;51.674;7.824;2022-08-19T06:34:07;100536.53;;;24.92;52.25
48872;BME280;36154;51.674;7.824;2022-08-19T06:36:37;100540.03;;;24.91;52.29
48872;BME280;36154;51.674;7.824;2022-08-19T06:39:11;100535.66;;;24.92;52.21
48872;BME280;36154;51.674;7.824;2022-08-19T06:41:40;100536.41;;;24.95;52.05
48872;BME280;36154;51.674;7.824;2022-08-19T06:44:05;100540.69;;;24.96;52.12
48872;BME280;36154;51.674;7.824;2022-08-19T06:46:31;100530.13;;;24.99;52.41
48872;BME280;36154;51.674;7.824;2022-08-19T06:48:58;100534.28;;;25.04;52.06
48872;BME280;36154;51.674;7.824;2022-08-19T06:51:25;100527.19;;;25.07;52.09
48872;BME280;36154;51.674;7.824;2022-08-19T06:53:52;100533.09;;;25.11;52.38
48872;BME280;36154;51.674;7.824;2022-08-19T06:56:22;100533.72;;;25.16;51.95
48872;BME280;36154;51.674;7.824;2022-08-19T06:58:50;100545.53;;;25.23;51.88
48872;BME280;36154;51.674;7.824;2022-08-19T07:01:17;100548.91;;;25.25;51.99
48872;BME280;36154;51.674;7.824;2022-08-19T07:03:43;100551.41;;;25.28;52.30
48872;BME280;36154;51.674;7.824;2022-08-19T07:06:11;100548.66;;;25.31;52.43
48872;BME280;36154;51.674;7.824;2022-08-19T07:08:39;100544.38;;;25.30;51.92
48872;BME280;36154;51.674;7.824;2022-08-19T07:11:09;100545.09;;;25.34;52.32
48872;BME280;36154;51.674;7.824;2022-08-19T07:13:36;100549.31;;;25.36;52.19
48872;BME280;36154;51.674;7.824;2022-08-19T07:16:11;100548.34;;;25.39;52.50
48872;BME280;36154;51.674;7.824;2022-08-19T07:18:37;100549.94;;;25.42;52.11
48872;BME280;36154;51.674;7.824;2022-08-19T07:21:24;100544.59;;;25.45;52.19
48872;BME280;36154;51.674;7.824;2022-08-19T07:23:50;100542.81;;;25.45;52.55
48872;BME280;36154;51.674;7.824;2022-08-19T07:26:24;100557.53;;;25.46;52.40
48872;BME280;36154;51.674;7.824;2022-08-19T07:28:49;100567.13;;;25.46;52.11
48872;BME280;36154;51.674;7.824;2022-08-19T07:31:18;100563.59;;;25.47;52.42
48872;BME280;36154;51.674;7.824;2022-08-19T07:33:44;100566.94;;;25.49;52.70
48872;BME280;36154;51.674;7.824;2022-08-19T07:36:12;100568.50;;;25.53;52.49
48872;BME280;36154;51.674;7.824;2022-08-19T07:38:42;100568.38;;;25.56;52.39
48872;BME280;36154;51.674;7.824;2022-08-19T07:41:17;100568.22;;;25.59;52.17
48872;BME280;36154;51.674;7.824;2022-08-19T07:43:43;100581.09;;;25.62;52.20
48872;BME280;36154;51.674;7.824;2022-08-19T07:46:10;100578.34;;;25.65;52.07
48872;BME280;36154;51.674;7.824;2022-08-19T07:48:35;100579.03;;;25.69;52.30
48872;BME280;36154;51.674;7.824;2022-08-19T07:51:03;100572.03;;;25.71;52.22
48872;BME280;36154;51.674;7.824;2022-08-19T07:53:30;100582.19;;;25.76;52.02
48872;BME280;36154;51.674;7.824;2022-08-19T07:55:57;100575.94;;;25.80;51.86
48872;BME280;36154;51.674;7.824;2022-08-19T07:58:31;100585.28;;;25.84;51.81
48872;BME280;36154;51.674;7.824;2022-08-19T08:00:57;100586.91;;;25.86;51.96
48872;BME280;36154;51.674;7.824;2022-08-19T08:03:23;100602.47;;;25.88;52.05
48872;BME280;36154;51.674;7.824;2022-08-19T08:06:13;100600.56;;;25.91;52.00
48872;BME280;36154;51.674;7.824;2022-08-19T08:09:08;100608.25;;;25.95;51.91
48872;BME280;36154;51.674;7.824;2022-08-19T08:11:45;100597.78;;;25.96;51.79
48872;BME280;36154;51.674;7.824;2022-08-19T08:14:18;100605.53;;;25.98;51.51
48872;BME280;36154;51.674;7.824;2022-08-19T08:16:45;100593.25;;;26.00;51.34
48872;BME280;36154;51.674;7.824;2022-08-19T08:19:11;100599.22;;;26.02;51.51
48872;BME280;36154;51.674;7.824;2022-08-19T08:21:36;100599.94;;;26.05;51.24
48872;BME280;36154;51.674;7.824;2022-08-19T08:24:01;100599.00;;;26.06;51.17
48872;BME280;36154;51.674;7.824;2022-08-19T08:26:27;100600.63;;;26.09;51.45
48872;BME280;36154;51.674;7.824;2022-08-19T08:28:53;100587.50;;;26.10;51.06
48872;BME280;36154;51.674;7.824;2022-08-19T08:31:19;100590.88;;;26.13;51.29
48872;BME280;36154;51.674;7.824;2022-08-19T08:33:45;100595.94;;;26.16;51.05
48872;BME280;36154;51.674;7.824;2022-08-19T08:36:12;100598.41;;;26.19;51.11
48872;BME280;36154;51.674;7.824;2022-08-19T08:38:42;100603.47;;;26.22;50.64
48872;BME280;36154;51.674;7.824;2022-08-19T08:41:31;100603.34;;;26.25;50.71
48872;BME280;36154;51.674;7.824;2022-08-19T08:43:59;100604.09;;;26.27;50.48
48872;BME280;36154;51.674;7.824;2022-08-19T08:46:43;100612.69;;;26.29;50.62
48872;BME280;36154;51.674;7.824;2022-08-19T08:49:40;100611.63;;;26.33;50.46
48872;BME280;36154;51.674;7.824;2022-08-19T08:52:21;100610.59;;;26.36;50.92
48872;BME280;36154;51.674;7.824;2022-08-19T08:54:48;100609.63;;;26.38;50.70
48872;BME280;36154;51.674;7.824;2022-08-19T08:59:49;100607.78;;;26.40;50.60
48872;BME280;36154;51.674;7.824;2022-08-19T09:02:17;100605.78;;;26.45;50.57
48872;BME280;36154;51.674;7.824;2022-08-19T09:04:42;100606.63;;;26.46;50.22
48872;BME280;36154;51.674;7.824;2022-08-19T09:07:22;100613.47;;;26.48;50.35
48872;BME280;36154;51.674;7.824;2022-08-19T09:09:52;100602.13;;;26.50;50.21
48872;BME280;36154;51.674;7.824;2022-08-19T09:12:24;100605.47;;;26.52;50.49
48872;BME280;36154;51.674;7.824;2022-08-19T09:17:23;100600.88;;;26.57;50.11
48872;BME280;36154;51.674;7.824;2022-08-19T09:19:55;100604.25;;;26.59;50.27
48872;BME280;36154;51.674;7.824;2022-08-19T09:22:22;100616.31;;;26.61;50.01
48872;BME280;36154;51.674;7.824;2022-08-19T09:24:49;100612.75;;;26.62;49.65
48872;BME280;36154;51.674;7.824;2022-08-19T09:27:15;100613.66;;;26.63;49.67
48872;BME280;36154;51.674;7.824;2022-08-19T09:29:40;100607.41;;;26.65;49.29
48872;BME280;36154;51.674;7.824;2022-08-19T09:32:06;100604.72;;;26.67;48.89
48872;BME280;36154;51.674;7.824;2022-08-19T09:34:32;100597.66;;;26.69;48.68
48872;BME280;36154;51.674;7.824;2022-08-19T09:36:58;100599.34;;;26.70;48.51
48872;BME280;36154;51.674;7.824;2022-08-19T09:39:25;100598.50;;;26.70;48.49
48872;BME280;36154;51.674;7.824;2022-08-19T09:41:50;100601.03;;;26.71;48.74
48872;BME280;36154;51.674;7.824;2022-08-19T09:44:16;100601.81;;;26.73;48.55
48872;BME280;36154;51.674;7.824;2022-08-19T09:46:41;100598.25;;;26.74;48.47
48872;BME280;36154;51.674;7.824;2022-08-19T09:49:07;100601.63;;;26.76;48.37
48872;BME280;36154;51.674;7.824;2022-08-19T09:51:32;100599.88;;;26.77;48.10
48872;BME280;36154;51.674;7.824;2022-08-19T09:54:00;100594.50;;;26.80;48.44
48872;BME280;36154;51.674;7.824;2022-08-19T09:56:26;100607.50;;;26.81;48.18
48872;BME280;36154;51.674;7.824;2022-08-19T09:58:52;100604.00;;;26.81;47.59
48872;BME280;36154;51.674;7.824;2022-08-19T10:01:20;100604.00;;;26.81;47.45
48872;BME280;36154;51.674;7.824;2022-08-19T10:03:51;100605.78;;;26.80;47.24
48872;BME280;36154;51.674;7.824;2022-08-19T10:06:18;100612.72;;;26.81;47.36
48872;BME280;36154;51.674;7.824;2022-08-19T10:08:44;100606.63;;;26.81;47.22
48872;BME280;36154;51.674;7.824;2022-08-19T10:11:10;100599.56;;;26.83;47.25
48872;BME280;36154;51.674;7.824;2022-08-19T10:13:36;100601.16;;;26.86;46.93
48872;BME280;36154;51.674;7.824;2022-08-19T10:16:05;100595.03;;;26.87;47.02
48872;BME280;36154;51.674;7.824;2022-08-19T10:18:31;100590.56;;;26.89;46.81
48872;BME280;36154;51.674;7.824;2022-08-19T10:21:20;100593.94;;;26.91;46.75
48872;BME280;36154;51.674;7.824;2022-08-19T10:23:50;100595.47;;;26.95;46.66
48872;BME280;36154;51.674;7.824;2022-08-19T10:26:25;100590.16;;;26.96;46.97
48872;BME280;36154;51.674;7.824;2022-08-19T10:28:51;100594.38;;;26.99;46.64
48872;BME280;36154;51.674;7.824;2022-08-19T10:31:20;100589.00;;;27.02;46.40
48872;BME280;36154;51.674;7.824;2022-08-19T10:33:47;100580.22;;;27.03;46.38
48872;BME280;36154;51.674;7.824;2022-08-19T10:36:19;100580.94;;;27.07;46.35
48872;BME280;36154;51.674;7.824;2022-08-19T10:38:47;100578.22;;;27.08;46.13
48872;BME280;36154;51.674;7.824;2022-08-19T10:41:17;100584.22;;;27.10;45.96
48872;BME280;36154;51.674;7.824;2022-08-19T10:43:43;100586.69;;;27.13;46.04
48872;BME280;36154;51.674;7.824;2022-08-19T10:46:12;100574.38;;;27.15;45.95
48872;BME280;36154;51.674;7.824;2022-08-19T10:48:38;100577.75;;;27.17;45.74
48872;BME280;36154;51.674;7.824;2022-08-19T10:51:04;100570.66;;;27.19;45.52
48872;BME280;36154;51.674;7.824;2022-08-19T10:53:48;100568.78;;;27.21;45.97
48872;BME280;36154;51.674;7.824;2022-08-19T10:56:14;100567.88;;;27.23;45.65
48872;BME280;36154;51.674;7.824;2022-08-19T10:58:58;100568.63;;;27.25;45.95
48872;BME280;36154;51.674;7.824;2022-08-19T11:01:25;100559.88;;;27.26;45.69
48872;BME280;36154;51.674;7.824;2022-08-19T11:03:50;100566.81;;;27.27;45.62
48872;BME280;36154;51.674;7.824;2022-08-19T11:06:16;100559.75;;;27.29;45.79
48872;BME280;36154;51.674;7.824;2022-08-19T11:08:41;100556.19;;;27.30;45.63
48872;BME280;36154;51.674;7.824;2022-08-19T11:11:08;100559.59;;;27.32;45.70
48872;BME280;36154;51.674;7.824;2022-08-19T11:13:37;100557.72;;;27.34;45.51
48872;BME280;36154;51.674;7.824;2022-08-19T11:16:07;100544.69;;;27.34;44.37
48872;BME280;36154;51.674;7.824;2022-08-19T11:18:35;100550.72;;;27.34;44.23
48872;BME280;36154;51.674;7.824;2022-08-19T11:23:37;100551.31;;;27.39;44.33
48872;BME280;36154;51.674;7.824;2022-08-19T11:26:02;100554.78;;;27.40;44.13
48872;BME280;36154;51.674;7.824;2022-08-19T11:28:28;100559.06;;;27.41;43.98
48872;BME280;36154;51.674;7.824;2022-08-19T11:30:53;100552.94;;;27.42;43.84
48872;BME280;36154;51.674;7.824;2022-08-19T11:33:19;100546.69;;;27.45;44.22
48872;BME280;36154;51.674;7.824;2022-08-19T11:35:44;100554.44;;;27.46;44.35
48872;BME280;36154;51.674;7.824;2022-08-19T11:38:10;100544.75;;;27.48;44.52
48872;BME280;36154;51.674;7.824;2022-08-19T11:40:36;100536.81;;;27.50;44.20
48872;BME280;36154;51.674;7.824;2022-08-19T11:43:01;100527.22;;;27.50;43.49
48872;BME280;36154;51.674;7.824;2022-08-19T11:45:28;100534.97;;;27.52;42.99
48872;BME280;36154;51.674;7.824;2022-08-19T11:47:54;100533.94;;;27.54;43.03
48872;BME280;36154;51.674;7.824;2022-08-19T11:50:20;100529.47;;;27.56;43.18
48872;BME280;36154;51.674;7.824;2022-08-19T11:52:46;100535.47;;;27.58;42.96
48872;BME280;36154;51.674;7.824;2022-08-19T11:55:13;100528.31;;;27.62;43.11
48872;BME280;36154;51.674;7.824;2022-08-19T11:57:38;100535.13;;;27.65;43.11
48872;BME280;36154;51.674;7.824;2022-08-19T12:00:06;100534.94;;;27.68;43.22
48872;BME280;36154;51.674;7.824;2022-08-19T12:02:32;100533.09;;;27.70;43.17
48872;BME280;36154;51.674;7.824;2022-08-19T12:04:58;100534.78;;;27.71;43.03
48872;BME280;36154;51.674;7.824;2022-08-19T12:07:23;100533.75;;;27.73;42.81
48872;BME280;36154;51.674;7.824;2022-08-19T12:09:50;100538.81;;;27.76;42.76
48872;BME280;36154;51.674;7.824;2022-08-19T12:12:15;100530.88;;;27.78;42.89
48872;BME280;36154;51.674;7.824;2022-08-19T12:14:41;100535.94;;;27.81;42.81
48872;BME280;36154;51.674;7.824;2022-08-19T12:17:06;100533.16;;;27.84;42.83
48872;BME280;36154;51.674;7.824;2022-08-19T12:19:33;100532.19;;;27.85;42.43
48872;BME280;36154;51.674;7.824;2022-08-19T12:22:00;100516.44;;;27.87;42.32
48872;BME280;36154;51.674;7.824;2022-08-19T12:24:30;100523.28;;;27.89;42.40
48872;BME280;36154;51.674;7.824;2022-08-19T12:26:57;100524.09;;;27.90;42.25
48872;BME280;36154;51.674;7.824;2022-08-19T12:29:24;100519.75;;;27.90;41.92
48872;BME280;36154;51.674;7.824;2022-08-19T12:31:53;100518.03;;;27.89;41.76
48872;BME280;36154;51.674;7.824;2022-08-19T12:34:19;100512.81;;;27.89;41.55
48872;BME280;36154;51.674;7.824;2022-08-19T12:36:45;100523.28;;;27.89;41.45
48872;BME280;36154;51.674;7.824;2022-08-19T12:39:10;100515.34;;;27.91;41.69
48872;BME280;36154;51.674;7.824;2022-08-19T12:41:36;100511.78;;;27.92;41.26
48872;BME280;36154;51.674;7.824;2022-08-19T12:44:02;100520.50;;;27.92;41.88
48872;BME280;36154;51.674;7.824;2022-08-19T12:46:27;100513.25;;;27.98;41.97
48872;BME280;36154;51.674;7.824;2022-08-19T12:48:53;100505.97;;;28.03;41.78
48872;BME280;36154;51.674;7.824;2022-08-19T12:51:19;100517.84;;;28.08;42.13
48872;BME280;36154;51.674;7.824;2022-08-19T12:53:45;100508.03;;;28.12;41.39
48872;BME280;36154;51.674;7.824;2022-08-19T12:56:12;100503.56;;;28.14;40.88
48872;BME280;36154;51.674;7.824;2022-08-19T12:58:40;100499.09;;;28.16;40.51
48872;BME280;36154;51.674;7.824;2022-08-19T13:01:13;100483.22;;;28.19;40.63
48872;BME280;36154;51.674;7.824;2022-08-19T13:03:39;100498.72;;;28.22;40.71